This is the latest recevied weather packets stored in our database for station/object TA3HRJ-12. If no packets are shown the sender has not sent any weather packets the latest 10 day(s).
| Time | Temp. | Humidity | Pressure | Rain* | Wind** | Luminosity | Snow |
|---|---|---|---|---|---|---|---|
| 1778138749 | 22.22° C | 26% | 1031.9 hPa | - | - | - | - |
| 1778137849 | 22.78° C | 26% | 1031.7 hPa | - | - | - | - |
| 1778136949 | 23.33° C | 25% | 1031.7 hPa | - | - | - | - |
| 1778136049 | 24.44° C | 24% | 1031.7 hPa | - | - | - | - |
| 1778135149 | 23.33° C | 25% | 1031.6 hPa | - | - | - | - |
| 1778134249 | 23.89° C | 26% | 1031.6 hPa | - | - | - | - |
| 1778133349 | 22.78° C | 27% | 1031.5 hPa | - | - | - | - |
| 1778132449 | 21.67° C | 28% | 1031.5 hPa | - | - | - | - |
| 1778131549 | 22.22° C | 27% | 1031.4 hPa | - | - | - | - |
| 1778130648 | 21.67° C | 27% | 1031.4 hPa | - | - | - | - |
| 1778129748 | 21.11° C | 27% | 1031.2 hPa | - | - | - | - |
| 1778128848 | 21.11° C | 27% | 1031 hPa | - | - | - | - |
| 1778127948 | 20° C | 29% | 1031 hPa | - | - | - | - |
| 1778127048 | 18.89° C | 30% | 1031 hPa | - | - | - | - |
| 1778126148 | 18.33° C | 31% | 1030.8 hPa | - | - | - | - |
| 1778125248 | 17.22° C | 32% | 1030.8 hPa | - | - | - | - |
| 1778124348 | 16.67° C | 33% | 1030.7 hPa | - | - | - | - |
| 1778123448 | 16.11° C | 35% | 1030.5 hPa | - | - | - | - |
| 1778122547 | 15° C | 36% | 1030.5 hPa | - | - | - | - |
| 1778121647 | 15° C | 36% | 1030.5 hPa | - | - | - | - |
| 1778120747 | 15.56° C | 35% | 1030.3 hPa | - | - | - | - |
| 1778119847 | 14.44° C | 38% | 1030.3 hPa | - | - | - | - |
| 1778118947 | 15.56° C | 35% | 1030.3 hPa | - | - | - | - |
| 1778118047 | 15.56° C | 34% | 1030.2 hPa | - | - | - | - |
| 1778117147 | 16.11° C | 35% | 1030.2 hPa | - | - | - | - |
* Rain since midnight (hover to see other rain measurements)
** Current wind speed in m/s (hover to see current wind gust speed)